createdAt,value
2018-08-11T00:00:33.129Z,12.60
2018-08-11T00:03:01.238Z,12.50
2018-08-11T00:05:29.417Z,12.50
2018-08-11T00:07:57.705Z,12.50
2018-08-11T00:10:25.915Z,12.50
2018-08-11T00:12:54.059Z,12.60
2018-08-11T00:15:22.273Z,12.50
2018-08-11T00:17:50.397Z,12.60
2018-08-11T00:20:22.249Z,12.50
2018-08-11T00:22:50.525Z,12.50
2018-08-11T00:25:18.713Z,12.50
2018-08-11T00:27:46.901Z,12.40
2018-08-11T00:30:16.585Z,12.50
2018-08-11T00:32:45.325Z,12.40
2018-08-11T00:35:14.345Z,12.50
2018-08-11T00:37:42.897Z,12.50
2018-08-11T00:40:15.933Z,12.40
2018-08-11T00:42:45.173Z,12.50
2018-08-11T00:45:14.336Z,12.50
2018-08-11T00:47:42.544Z,12.50
2018-08-11T00:50:17.726Z,12.50
2018-08-11T00:52:45.829Z,12.50
2018-08-11T00:55:14.445Z,12.60
2018-08-11T00:57:42.772Z,12.50
2018-08-11T01:00:14.542Z,12.50
2018-08-11T01:02:43.280Z,12.50
2018-08-11T01:05:13.708Z,12.50
2018-08-11T01:07:43.316Z,12.50
2018-08-11T01:10:12.273Z,12.50
2018-08-11T01:12:41.400Z,12.60
2018-08-11T01:15:12.758Z,12.60
2018-08-11T01:17:41.208Z,12.70
2018-08-11T01:20:10.557Z,12.80
2018-08-11T01:22:39.524Z,12.90
2018-08-11T01:25:08.214Z,12.90
2018-08-11T01:27:36.798Z,13.00
2018-08-11T01:30:07.057Z,13.10
2018-08-11T01:32:35.193Z,13.20
2018-08-11T01:35:03.742Z,13.20
2018-08-11T01:37:31.962Z,13.20
2018-08-11T01:40:00.175Z,13.30
2018-08-11T01:42:28.256Z,13.30
2018-08-11T01:44:56.321Z,13.40
2018-08-11T01:47:24.425Z,13.40
2018-08-11T01:49:52.725Z,13.40
2018-08-11T01:52:20.853Z,13.40
2018-08-11T01:54:49.030Z,13.40
2018-08-11T01:57:17.233Z,13.30
2018-08-11T01:59:45.413Z,13.40
2018-08-11T02:02:14.097Z,13.40
2018-08-11T02:04:42.260Z,13.40
2018-08-11T02:07:10.418Z,13.40
2018-08-11T02:09:38.649Z,13.50
2018-08-11T02:12:07.005Z,13.50
2018-08-11T02:14:35.189Z,13.50
2018-08-11T02:17:03.369Z,13.60
2018-08-11T02:19:31.714Z,13.60
2018-08-11T02:21:59.988Z,13.60
2018-08-11T02:24:28.137Z,13.50
2018-08-11T02:26:56.405Z,13.60
2018-08-11T02:29:24.761Z,13.60
2018-08-11T02:31:52.869Z,13.70
2018-08-11T02:34:21.120Z,13.70
2018-08-11T02:36:49.225Z,13.90
2018-08-11T02:39:17.389Z,14.00
2018-08-11T02:41:45.702Z,14.00
2018-08-11T02:44:13.902Z,14.10
2018-08-11T02:46:42.014Z,14.20
2018-08-11T02:49:10.237Z,14.20
2018-08-11T02:51:38.377Z,14.40
2018-08-11T02:54:06.565Z,14.50
2018-08-11T02:56:34.955Z,14.60
2018-08-11T02:59:03.317Z,14.60
2018-08-11T03:01:32.130Z,14.70
2018-08-11T03:04:00.305Z,14.60
2018-08-11T03:06:28.497Z,14.60
2018-08-11T03:08:56.665Z,14.70
2018-08-11T03:11:24.977Z,14.70
2018-08-11T03:13:53.120Z,14.70
2018-08-11T03:16:21.305Z,14.70
2018-08-11T03:18:49.422Z,14.70
2018-08-11T03:21:17.660Z,14.70
2018-08-11T03:23:45.826Z,14.80
2018-08-11T03:26:13.961Z,14.70
2018-08-11T03:28:42.452Z,14.70
2018-08-11T03:31:10.653Z,14.70
2018-08-11T03:33:38.769Z,14.70
2018-08-11T03:36:07.162Z,14.70
2018-08-11T03:38:35.353Z,14.60
2018-08-11T03:41:03.493Z,14.70
2018-08-11T03:43:31.694Z,14.70
2018-08-11T03:46:00.131Z,14.70
2018-08-11T03:48:28.246Z,14.80
2018-08-11T03:50:56.432Z,14.80
2018-08-11T03:53:24.605Z,14.90
2018-08-11T03:55:52.748Z,14.90
2018-08-11T03:58:21.044Z,14.90
2018-08-11T04:00:49.269Z,15.00
2018-08-11T04:03:17.385Z,14.90
2018-08-11T04:05:45.793Z,15.00
2018-08-11T04:08:13.952Z,15.00
2018-08-11T04:10:42.189Z,15.00
2018-08-11T04:13:10.293Z,14.80
2018-08-11T04:15:38.975Z,14.80
2018-08-11T04:18:07.488Z,14.80
2018-08-11T04:20:35.665Z,14.60
2018-08-11T04:23:03.840Z,14.50
2018-08-11T04:25:31.989Z,14.30
2018-08-11T04:28:00.179Z,14.10
2018-08-11T04:30:28.329Z,13.80
2018-08-11T04:32:56.513Z,13.60
2018-08-11T04:35:24.702Z,13.50
2018-08-11T04:37:52.837Z,13.40
2018-08-11T04:40:21.100Z,13.30
2018-08-11T04:42:49.337Z,13.20
2018-08-11T04:45:17.465Z,13.10
2018-08-11T04:47:45.688Z,13.00
2018-08-11T04:50:13.934Z,13.00
2018-08-11T04:52:42.211Z,13.00
2018-08-11T04:55:10.369Z,13.00
2018-08-11T04:57:38.581Z,12.90
2018-08-11T05:00:07.972Z,12.90
2018-08-11T05:02:36.122Z,12.90
2018-08-11T05:05:04.515Z,12.90
2018-08-11T05:07:32.733Z,12.90
2018-08-11T05:10:01.077Z,12.80
2018-08-11T05:12:29.269Z,12.80
2018-08-11T05:14:57.913Z,12.90
2018-08-11T05:17:26.333Z,13.00
2018-08-11T05:19:55.041Z,13.00
2018-08-11T05:22:23.149Z,12.90
2018-08-11T05:24:51.373Z,12.90
2018-08-11T05:27:19.923Z,12.90
2018-08-11T05:29:48.501Z,12.90
2018-08-11T05:32:16.839Z,13.00
2018-08-11T05:34:45.398Z,12.90
2018-08-11T05:37:14.273Z,12.80
2018-08-11T05:39:42.455Z,12.80
2018-08-11T05:42:10.593Z,12.80
2018-08-11T05:44:38.800Z,12.80
2018-08-11T05:47:06.997Z,12.90
2018-08-11T05:49:35.113Z,12.90
2018-08-11T05:52:03.288Z,12.90
2018-08-11T05:54:31.553Z,13.00
2018-08-11T05:56:59.868Z,13.10
2018-08-11T05:59:28.817Z,13.20
2018-08-11T06:01:57.106Z,13.20
2018-08-11T06:04:25.441Z,13.20
2018-08-11T06:06:53.565Z,13.20
2018-08-11T06:09:21.746Z,13.30
2018-08-11T06:11:50.055Z,13.30
2018-08-11T06:14:18.108Z,13.30
2018-08-11T06:16:46.265Z,13.20
2018-08-11T06:19:14.457Z,13.20
2018-08-11T06:21:42.634Z,12.90
2018-08-11T06:24:11.050Z,13.00
2018-08-11T06:26:39.148Z,13.00
2018-08-11T06:29:07.242Z,13.20
2018-08-11T06:31:35.567Z,13.50
2018-08-11T06:34:03.593Z,13.70
2018-08-11T06:36:31.969Z,13.70
2018-08-11T06:39:00.144Z,13.80
2018-08-11T06:41:28.681Z,14.30
2018-08-11T06:43:56.794Z,14.40
2018-08-11T06:46:25.030Z,14.60
2018-08-11T06:48:53.195Z,14.60
2018-08-11T06:51:21.346Z,14.70
2018-08-11T06:53:49.573Z,14.80
2018-08-11T06:56:17.686Z,15.20
2018-08-11T06:58:45.869Z,15.50
2018-08-11T07:01:13.937Z,16.00
2018-08-11T07:03:42.701Z,15.70
2018-08-11T07:06:10.910Z,15.30
2018-08-11T07:08:39.123Z,15.30
2018-08-11T07:11:07.412Z,15.60
2018-08-11T07:13:35.526Z,16.30
2018-08-11T07:16:03.756Z,17.10
2018-08-11T07:18:31.873Z,16.90
2018-08-11T07:20:59.949Z,16.70
2018-08-11T07:23:28.125Z,17.00
2018-08-11T07:25:56.390Z,17.50
2018-08-11T07:28:24.565Z,18.00
2018-08-11T07:30:53.051Z,17.80
2018-08-11T07:33:21.434Z,17.80
2018-08-11T07:35:49.815Z,17.80
2018-08-11T07:38:18.165Z,17.60
2018-08-11T07:40:46.489Z,17.20
2018-08-11T07:43:15.091Z,17.00
2018-08-11T07:45:43.741Z,17.50
2018-08-11T07:48:11.893Z,18.80
2018-08-11T07:50:40.110Z,19.10
2018-08-11T07:53:08.238Z,18.50
2018-08-11T07:55:36.609Z,19.10
2018-08-11T07:58:04.760Z,19.10
2018-08-11T08:00:32.877Z,19.60
2018-08-11T08:03:01.105Z,19.40
2018-08-11T08:05:29.237Z,19.50
2018-08-11T08:07:58.492Z,20.00
2018-08-11T08:10:26.801Z,20.30
2018-08-11T08:12:55.606Z,19.40
2018-08-11T08:15:23.776Z,20.00
2018-08-11T08:17:51.952Z,20.90
2018-08-11T08:20:20.388Z,20.70
2018-08-11T08:22:48.493Z,20.60
2018-08-11T08:25:16.773Z,21.10
2018-08-11T08:27:45.006Z,21.70
2018-08-11T08:30:13.334Z,21.30
2018-08-11T08:32:42.533Z,20.50
2018-08-11T08:35:11.325Z,19.70
2018-08-11T08:37:39.517Z,19.50
2018-08-11T08:40:08.301Z,18.80
2018-08-11T08:42:36.633Z,18.60
2018-08-11T08:45:07.025Z,18.80
2018-08-11T08:47:35.248Z,19.20
2018-08-11T08:50:03.344Z,19.50
2018-08-11T08:52:31.926Z,20.00
2018-08-11T08:55:00.165Z,20.50
2018-08-11T08:57:28.276Z,20.00
2018-08-11T08:59:56.532Z,20.60
2018-08-11T09:02:24.764Z,21.00
2018-08-11T09:04:53.146Z,20.80
2018-08-11T09:07:21.289Z,20.50
2018-08-11T09:09:49.867Z,19.50
2018-08-11T09:12:18.058Z,18.80
2018-08-11T09:14:46.229Z,18.80
2018-08-11T09:17:14.786Z,19.30
2018-08-11T09:19:43.218Z,18.80
2018-08-11T09:22:11.797Z,18.40
2018-08-11T09:24:40.140Z,18.40
2018-08-11T09:27:08.223Z,18.10
2018-08-11T09:29:36.908Z,17.80
2018-08-11T09:32:06.741Z,17.20
2018-08-11T09:34:34.933Z,17.00
2018-08-11T09:37:03.896Z,17.20
2018-08-11T09:39:32.797Z,17.20
2018-08-11T09:42:00.938Z,17.30
2018-08-11T09:44:29.477Z,17.20
2018-08-11T09:46:57.589Z,17.00
2018-08-11T09:50:50.444Z,16.60
2018-08-11T09:53:18.652Z,16.20
2018-08-11T09:55:48.065Z,15.90
2018-08-11T09:58:16.220Z,15.80
2018-08-11T10:00:50.236Z,15.60
2018-08-11T10:03:18.837Z,15.70
2018-08-11T10:05:47.445Z,16.50
2018-08-11T10:08:16.114Z,16.90
2018-08-11T10:10:45.230Z,17.00
2018-08-11T10:13:13.568Z,17.00
2018-08-11T10:15:41.913Z,17.30
2018-08-11T10:18:10.869Z,18.20
2018-08-11T10:20:39.053Z,18.90
2018-08-11T10:23:07.176Z,19.40
2018-08-11T10:25:35.351Z,19.50
2018-08-11T10:28:04.134Z,19.50
2018-08-11T10:30:32.305Z,19.40
2018-08-11T10:33:00.532Z,18.80
2018-08-11T10:35:28.677Z,18.10
2018-08-11T10:37:56.965Z,17.70
2018-08-11T10:40:25.112Z,17.00
2018-08-11T10:42:54.117Z,16.40
2018-08-11T10:45:22.433Z,15.90
2018-08-11T10:47:50.725Z,15.70
2018-08-11T10:50:18.854Z,15.30
2018-08-11T10:52:47.137Z,15.30
2018-08-11T10:55:15.334Z,15.50
2018-08-11T10:57:44.632Z,16.10
2018-08-11T11:00:12.796Z,16.80
2018-08-11T11:02:40.969Z,17.30
2018-08-11T11:05:09.945Z,17.10
2018-08-11T11:07:38.121Z,16.60
2018-08-11T11:10:07.128Z,16.50
2018-08-11T11:12:35.805Z,16.90
2018-08-11T11:15:04.657Z,17.20
2018-08-11T11:17:32.868Z,17.00
2018-08-11T11:20:01.103Z,16.90
2018-08-11T11:22:30.776Z,16.90
2018-08-11T11:24:59.869Z,17.70
2018-08-11T11:27:27.989Z,18.30
2018-08-11T11:29:56.261Z,18.40
2018-08-11T11:32:24.423Z,18.40
2018-08-11T11:34:53.057Z,18.30
2018-08-11T11:37:21.230Z,18.90
2018-08-11T11:39:49.757Z,19.40
2018-08-11T11:42:18.395Z,20.20
2018-08-11T11:44:46.600Z,20.80
2018-08-11T11:47:14.743Z,21.70
2018-08-11T11:49:42.950Z,22.20
2018-08-11T11:52:11.725Z,21.30
2018-08-11T11:54:40.539Z,22.70
2018-08-11T11:57:09.277Z,21.80
2018-08-11T11:59:37.657Z,21.70
2018-08-11T12:02:06.441Z,22.10
2018-08-11T12:04:35.426Z,21.80
2018-08-11T12:07:04.307Z,22.40
2018-08-11T12:09:32.393Z,22.60
2018-08-11T12:12:00.601Z,22.90
2018-08-11T12:14:29.685Z,23.20
2018-08-11T12:16:57.865Z,22.70
2018-08-11T12:19:26.110Z,21.90
2018-08-11T12:21:54.209Z,21.20
2018-08-11T12:24:22.369Z,20.40
2018-08-11T12:26:50.672Z,19.50
2018-08-11T12:29:18.940Z,19.10
2018-08-11T12:31:47.417Z,18.10
2018-08-11T12:34:16.356Z,17.40
2018-08-11T12:36:44.473Z,17.10
2018-08-11T12:39:12.729Z,18.20
2018-08-11T12:41:41.422Z,19.30
2018-08-11T12:44:10.937Z,19.50
2018-08-11T12:46:39.986Z,20.00
2018-08-11T12:49:08.293Z,19.70
2018-08-11T12:51:37.455Z,20.10
2018-08-11T12:54:06.421Z,20.10
2018-08-11T12:56:35.182Z,19.90
2018-08-11T12:59:03.405Z,19.90
2018-08-11T13:01:32.445Z,20.60
2018-08-11T13:04:00.558Z,21.20
2018-08-11T13:06:28.793Z,21.30
2018-08-11T13:08:56.900Z,20.60
2018-08-11T13:11:25.797Z,19.80
2018-08-11T13:13:53.987Z,19.20
2018-08-11T13:16:22.170Z,19.00
2018-08-11T13:18:50.329Z,18.80
2018-08-11T13:21:18.481Z,18.60
2018-08-11T13:23:46.650Z,18.90
2018-08-11T13:26:18.974Z,18.90
2018-08-11T13:28:47.237Z,18.70
2018-08-11T13:31:15.898Z,19.00
2018-08-11T13:33:44.107Z,19.40
2018-08-11T13:36:12.782Z,19.80
2018-08-11T13:38:41.369Z,19.50
2018-08-11T13:41:09.821Z,19.30
2018-08-11T13:43:37.881Z,19.30
2018-08-11T13:46:06.519Z,19.70
2018-08-11T13:48:35.334Z,20.00
2018-08-11T13:51:03.458Z,20.10
2018-08-11T13:53:31.693Z,20.40
2018-08-11T13:56:00.394Z,20.70
2018-08-11T13:58:29.668Z,20.80
2018-08-11T14:00:57.933Z,20.40
2018-08-11T14:03:26.100Z,19.60
2018-08-11T14:05:54.214Z,18.90
2018-08-11T14:08:22.458Z,18.20
2018-08-11T14:10:51.318Z,17.80
2018-08-11T14:13:20.017Z,17.70
2018-08-11T14:15:49.350Z,17.80
2018-08-11T14:18:17.581Z,17.80
2018-08-11T14:20:45.806Z,17.80
2018-08-11T14:23:15.489Z,18.20
2018-08-11T14:25:43.653Z,18.30
2018-08-11T14:28:11.853Z,18.40
2018-08-11T14:30:39.952Z,18.10
2018-08-11T14:33:09.080Z,17.90
2018-08-11T14:35:37.246Z,17.80
2018-08-11T14:38:05.688Z,17.60
2018-08-11T14:40:34.030Z,17.70
2018-08-11T14:43:02.393Z,17.70
2018-08-11T14:45:30.458Z,17.70
2018-08-11T14:47:58.735Z,18.00
2018-08-11T14:50:26.913Z,18.30
2018-08-11T14:52:55.289Z,18.40
2018-08-11T14:55:23.627Z,18.60
2018-08-11T14:57:51.817Z,18.80
2018-08-11T15:00:20.405Z,18.80
2018-08-11T15:02:48.913Z,18.80
2018-08-11T15:05:17.086Z,18.80
2018-08-11T15:07:45.285Z,18.80
2018-08-11T15:10:13.478Z,18.70
2018-08-11T15:12:41.893Z,18.70
2018-08-11T15:15:10.838Z,18.90
2018-08-11T15:17:40.257Z,18.70
2018-08-11T15:20:09.240Z,18.40
2018-08-11T15:22:37.906Z,18.30
2018-08-11T15:25:06.913Z,18.20
2018-08-11T15:27:35.035Z,18.40
2018-08-11T15:30:04.880Z,18.50
2018-08-11T15:32:33.053Z,18.90
2018-08-11T15:35:01.201Z,19.20
2018-08-11T15:37:29.802Z,19.20
2018-08-11T15:39:58.013Z,19.10
2018-08-11T15:42:26.641Z,19.00
2018-08-11T15:44:55.465Z,18.90
2018-08-11T15:47:23.731Z,19.00
2018-08-11T15:49:51.845Z,19.20
2018-08-11T15:52:19.990Z,19.50
2018-08-11T15:54:48.285Z,19.50
2018-08-11T15:57:16.909Z,19.20
2018-08-11T15:59:45.085Z,19.10
2018-08-11T16:02:13.169Z,19.10
2018-08-11T16:04:41.562Z,19.20
2018-08-11T16:07:10.165Z,19.20
2018-08-11T16:09:38.364Z,18.90
2018-08-11T16:12:06.546Z,18.70
2018-08-11T16:14:34.909Z,18.60
2018-08-11T16:17:03.032Z,18.50
2018-08-11T16:19:31.517Z,18.40
2018-08-11T16:22:00.395Z,18.20
2018-08-11T16:24:28.973Z,18.10
2018-08-11T16:26:57.069Z,18.10
2018-08-11T16:29:25.953Z,17.90
2018-08-11T16:31:54.590Z,17.90
2018-08-11T16:34:22.727Z,17.90
2018-08-11T16:36:50.961Z,17.90
2018-08-11T16:39:19.109Z,17.90
2018-08-11T16:41:47.442Z,17.90
2018-08-11T16:44:15.953Z,17.90
2018-08-11T16:46:44.842Z,17.60
2018-08-11T16:49:13.057Z,17.50
2018-08-11T16:51:41.745Z,17.60
2018-08-11T16:54:09.899Z,17.70
2018-08-11T16:56:38.666Z,17.70
2018-08-11T16:59:06.934Z,17.70
2018-08-11T17:01:35.138Z,17.60
2018-08-11T17:04:03.633Z,17.70
2018-08-11T17:06:31.945Z,17.80
2018-08-11T17:09:00.188Z,17.80
2018-08-11T17:11:29.001Z,17.70
2018-08-11T17:13:57.117Z,17.60
2018-08-11T17:16:25.563Z,17.60
2018-08-11T17:18:54.140Z,17.50
2018-08-11T17:21:23.058Z,17.60
2018-08-11T17:23:51.324Z,17.50
2018-08-11T17:26:19.408Z,17.60
2018-08-11T17:28:48.185Z,17.70
2018-08-11T17:31:17.785Z,17.70
2018-08-11T17:33:45.880Z,17.70
2018-08-11T17:36:14.085Z,17.60
2018-08-11T17:38:43.040Z,17.50
2018-08-11T17:41:11.225Z,17.40
2018-08-11T17:43:39.418Z,17.30
2018-08-11T17:46:08.003Z,17.30
2018-08-11T17:48:36.170Z,17.20
2018-08-11T17:51:04.381Z,17.20
2018-08-11T17:53:32.525Z,17.10
2018-08-11T17:56:01.285Z,17.00
2018-08-11T17:58:29.498Z,17.00
2018-08-11T18:00:58.157Z,17.00
2018-08-11T18:03:26.813Z,16.90
2018-08-11T18:05:54.906Z,16.90
2018-08-11T18:08:23.745Z,16.90
2018-08-11T18:10:51.881Z,16.80
2018-08-11T18:13:20.076Z,16.70
2018-08-11T18:15:48.265Z,16.70
2018-08-11T18:18:16.621Z,16.60
2018-08-11T18:20:45.038Z,16.50
2018-08-11T18:23:13.422Z,16.50
2018-08-11T18:25:41.873Z,16.50
2018-08-11T18:28:10.877Z,16.40
2018-08-11T18:30:39.284Z,16.40
2018-08-11T18:33:07.708Z,16.40
2018-08-11T18:35:36.137Z,16.30
2018-08-11T18:38:04.937Z,16.30
2018-08-11T18:40:33.205Z,16.20
2018-08-11T18:43:01.337Z,16.10
2018-08-11T18:45:29.775Z,16.10
2018-08-11T18:47:58.449Z,16.00
2018-08-11T18:50:27.022Z,16.00
2018-08-11T18:52:55.557Z,16.00
2018-08-11T18:55:23.848Z,16.00
2018-08-11T18:57:52.038Z,15.90
2018-08-11T19:00:20.828Z,15.80
2018-08-11T19:02:49.605Z,15.80
2018-08-11T19:05:17.808Z,15.70
2018-08-11T19:07:46.693Z,15.70
2018-08-11T19:10:15.546Z,15.60
2018-08-11T19:12:44.400Z,15.60
2018-08-11T19:15:14.327Z,15.60
2018-08-11T19:17:43.489Z,15.50
2018-08-11T19:20:13.101Z,15.50
2018-08-11T19:22:41.264Z,15.40
2018-08-11T19:25:10.934Z,15.30
2018-08-11T19:27:39.625Z,15.30
2018-08-11T19:30:09.062Z,15.20
2018-08-11T19:32:37.888Z,15.30
2018-08-11T19:35:06.853Z,15.20
2018-08-11T19:37:35.841Z,15.10
2018-08-11T19:40:05.413Z,15.00
2018-08-11T19:42:33.945Z,15.00
2018-08-11T19:45:02.435Z,14.90
2018-08-11T19:47:30.567Z,14.90
2018-08-11T19:49:59.028Z,14.90
2018-08-11T19:52:27.105Z,14.90
2018-08-11T19:54:55.357Z,14.80
2018-08-11T19:57:23.952Z,14.80
2018-08-11T19:59:52.523Z,14.70
2018-08-11T20:02:21.243Z,14.70
2018-08-11T20:04:50.961Z,14.70
2018-08-11T20:07:19.706Z,14.70
2018-08-11T20:09:48.331Z,14.70
2018-08-11T20:12:16.855Z,14.80
2018-08-11T20:14:45.097Z,14.70
2018-08-11T20:17:13.310Z,14.60
2018-08-11T20:19:41.806Z,14.60
2018-08-11T20:22:16.797Z,14.70
2018-08-11T20:24:46.741Z,14.60
2018-08-11T20:27:16.071Z,14.60
2018-08-11T20:29:44.400Z,14.50
2018-08-11T20:32:14.322Z,14.40
2018-08-11T20:34:43.210Z,14.40
2018-08-11T20:37:12.378Z,14.40
2018-08-11T20:39:41.489Z,14.40
2018-08-11T20:42:09.746Z,14.30
2018-08-11T20:44:38.550Z,14.30
2018-08-11T20:47:06.920Z,14.30
2018-08-11T20:49:35.237Z,14.30
2018-08-11T20:52:03.610Z,14.30
2018-08-11T20:54:32.372Z,14.30
2018-08-11T20:57:09.861Z,14.20
2018-08-11T20:59:38.363Z,14.20
2018-08-11T21:02:07.633Z,14.20
2018-08-11T21:04:35.853Z,14.20
2018-08-11T21:07:05.448Z,14.20
2018-08-11T21:09:33.637Z,14.30
2018-08-11T21:12:01.841Z,14.30
2018-08-11T21:14:30.651Z,14.40
2018-08-11T21:17:01.066Z,14.50
2018-08-11T21:19:29.662Z,14.60
2018-08-11T21:21:58.670Z,14.60
2018-08-11T21:24:27.680Z,14.60
2018-08-11T21:26:55.840Z,14.50
2018-08-11T21:29:24.197Z,14.50
2018-08-11T21:31:53.002Z,14.50
2018-08-11T21:34:21.577Z,14.40
2018-08-11T21:36:50.211Z,14.30
2018-08-11T21:39:18.725Z,14.20
2018-08-11T21:41:47.741Z,14.20
2018-08-11T21:44:16.488Z,14.30
2018-08-11T21:46:44.637Z,14.40
2018-08-11T21:49:14.208Z,14.40
2018-08-11T21:51:42.408Z,14.30
2018-08-11T21:54:11.061Z,14.20
2018-08-11T21:56:40.162Z,14.10
2018-08-11T21:59:08.929Z,14.10
2018-08-11T22:01:37.029Z,14.00
2018-08-11T22:04:05.521Z,14.00
2018-08-11T22:06:33.697Z,13.90
2018-08-11T22:09:01.976Z,13.90
2018-08-11T22:11:30.660Z,13.80
2018-08-11T22:14:00.077Z,13.80
2018-08-11T22:16:29.726Z,13.70
2018-08-11T22:18:58.138Z,13.70
2018-08-11T22:21:26.500Z,13.70
2018-08-11T22:23:54.793Z,13.70
2018-08-11T22:26:23.292Z,13.70
2018-08-11T22:28:51.678Z,13.80
2018-08-11T22:31:20.277Z,13.80
2018-08-11T22:33:49.143Z,13.90
2018-08-11T22:36:18.429Z,13.90
2018-08-11T22:38:47.833Z,14.00
2018-08-11T22:41:16.205Z,14.00
2018-08-11T22:43:44.502Z,13.90
2018-08-11T22:46:12.884Z,13.80
2018-08-11T22:48:41.445Z,13.80
2018-08-11T22:51:09.630Z,13.70
2018-08-11T22:53:37.792Z,13.60
2018-08-11T22:56:07.320Z,13.60
2018-08-11T22:58:35.502Z,13.60
2018-08-11T23:01:03.976Z,13.60
2018-08-11T23:03:32.357Z,13.50
2018-08-11T23:06:01.039Z,13.60
2018-08-11T23:08:30.357Z,13.60
2018-08-11T23:10:59.193Z,13.50
2018-08-11T23:13:27.517Z,13.60
2018-08-11T23:15:55.728Z,13.60
2018-08-11T23:18:24.089Z,13.70
2018-08-11T23:20:52.257Z,13.70
2018-08-11T23:23:20.953Z,13.70
2018-08-11T23:25:49.611Z,13.70
2018-08-11T23:28:18.681Z,13.70
2018-08-11T23:30:47.361Z,13.80
2018-08-11T23:33:16.243Z,13.80
2018-08-11T23:35:44.353Z,13.90
2018-08-11T23:38:12.660Z,13.90
2018-08-11T23:40:40.688Z,13.90
2018-08-11T23:43:08.990Z,13.90
2018-08-11T23:45:37.385Z,14.00
2018-08-11T23:48:07.249Z,14.00
2018-08-11T23:50:36.090Z,14.00
2018-08-11T23:53:04.285Z,13.90
2018-08-11T23:55:32.885Z,13.90
2018-08-11T23:58:01.835Z,14.00
